Time;durP1;ratioP1;P1;durP2;ratioP2;P2;SDS_P1;SDS_P2;PMS_P1;PMS_P2;Temp;Humidity;BMP_temperature;BMP_pressure;BME280_temperature;BME280_humidity;BME280_pressure;Samples;Min_cycle;Max_cycle;Signal;HPM_P1;HPM_P2
2023/04/21 00:00:44;;;;;;;39.92;22.23;;;8.60;99.90;;;;;;5012251;28;20045;-66
2023/04/21 00:03:10;;;;;;;36.58;23.48;;;8.30;99.90;;;;;;5013076;28;20046;-66
2023/04/21 00:05:37;;;;;;;41.28;23.17;;;8.10;99.90;;;;;;5012653;28;20045;-65
2023/04/21 00:08:02;;;;;;;40.83;22.50;;;8.40;99.90;;;;;;5012292;28;20061;-66
2023/04/21 00:10:28;;;;;;;38.55;23.13;;;9.10;99.90;;;;;;5012630;28;20053;-65
2023/04/21 00:12:54;;;;;;;38.13;23.10;;;8.10;99.90;;;;;;5012833;28;20052;-65
2023/04/21 00:15:20;;;;;;;42.47;24.27;;;8.20;99.90;;;;;;5012762;28;20046;-65
2023/04/21 00:17:45;;;;;;;40.53;23.20;;;8.30;99.90;;;;;;5012943;28;20041;-66
2023/04/21 00:20:11;;;;;;;41.03;22.48;;;8.10;99.90;;;;;;5011568;28;20061;-66
2023/04/21 00:22:37;;;;;;;35.67;21.35;;;8.10;99.90;;;;;;5011567;28;20058;-64
2023/04/21 00:25:03;;;;;;;41.28;22.45;;;7.90;99.90;;;;;;5012718;28;20053;-67
2023/04/21 00:27:28;;;;;;;40.33;22.38;;;8.30;99.90;;;;;;5012672;28;20088;-67
2023/04/21 00:29:54;;;;;;;38.33;22.85;;;7.90;99.90;;;;;;5012367;28;20081;-65
2023/04/21 00:32:20;;;;;;;46.45;24.15;;;8.20;99.90;;;;;;5012661;28;20104;-68
2023/04/21 00:34:45;;;;;;;41.92;23.15;;;7.90;99.90;;;;;;5012596;28;20050;-66
2023/04/21 00:37:11;;;;;;;39.92;23.02;;;8.10;99.90;;;;;;5011288;28;20046;-64
2023/04/21 00:39:37;;;;;;;36.25;23.02;;;8.60;99.90;;;;;;5012530;28;20053;-65
2023/04/21 00:42:03;;;;;;;38.28;22.65;;;7.70;99.90;;;;;;5012476;28;20052;-70
2023/04/21 00:44:28;;;;;;;40.25;23.83;;;8.00;99.90;;;;;;5012506;28;20049;-68
2023/04/21 00:46:54;;;;;;;43.22;22.33;;;7.90;99.90;;;;;;5012415;28;20061;-70
2023/04/21 00:49:21;;;;;;;36.00;21.90;;;7.70;99.90;;;;;;5012320;28;20124;-66
2023/04/21 00:51:47;;;;;;;38.90;22.17;;;8.70;99.90;;;;;;5012121;28;20266;-66
2023/04/21 00:54:13;;;;;;;40.75;23.67;;;8.60;99.90;;;;;;5012402;28;20124;-65
2023/04/21 00:56:39;;;;;;;48.83;23.65;;;8.10;99.90;;;;;;5012007;28;20569;-65
2023/04/21 00:59:05;;;;;;;42.55;23.33;;;7.90;99.90;;;;;;5012283;28;20049;-66
2023/04/21 01:01:33;;;;;;;45.47;24.40;;;8.10;99.90;;;;;;5012051;28;20042;-67
2023/04/21 01:03:59;;;;;;;42.60;23.60;;;8.10;99.90;;;;;;5012301;28;20145;-68
2023/04/21 01:06:33;;;;;;;37.97;23.48;;;8.00;99.90;;;;;;5010949;28;20046;-67
2023/04/21 01:08:59;;;;;;;45.65;25.08;;;8.30;99.90;;;;;;5012232;28;20046;-65
2023/04/21 01:11:25;;;;;;;50.95;24.83;;;8.80;99.90;;;;;;5012161;28;20046;-65
2023/04/21 01:13:54;;;;;;;49.20;25.58;;;8.40;99.90;;;;;;5012260;28;20565;-69
2023/04/21 01:16:21;;;;;;;36.28;23.60;;;8.20;99.90;;;;;;5011105;28;20053;-66
2023/04/21 01:18:47;;;;;;;45.80;25.08;;;8.30;99.90;;;;;;5012096;28;20253;-67
2023/04/21 01:21:14;;;;;;;42.42;25.65;;;7.80;99.90;;;;;;5011787;28;20093;-70
2023/04/21 01:23:40;;;;;;;39.72;25.13;;;8.20;99.90;;;;;;5010793;28;20057;-65
2023/04/21 01:26:06;;;;;;;45.50;25.67;;;8.10;99.90;;;;;;5012065;28;20049;-65
2023/04/21 01:28:32;;;;;;;44.92;25.05;;;7.90;99.90;;;;;;5012059;28;20050;-67
2023/04/21 01:30:58;;;;;;;47.83;25.45;;;7.90;99.90;;;;;;5011736;28;20073;-72
2023/04/21 01:33:24;;;;;;;42.15;26.27;;;7.90;99.90;;;;;;5012386;28;20049;-67
2023/04/21 01:35:50;;;;;;;46.90;26.65;;;7.90;99.90;;;;;;5015559;28;20096;-65
2023/04/21 01:38:17;;;;;;;40.13;25.13;;;7.60;99.90;;;;;;5015731;28;20046;-69
2023/04/21 01:40:46;;;;;;;45.78;25.27;;;7.90;99.90;;;;;;5015727;28;20132;-70
2023/04/21 01:43:12;;;;;;;42.38;24.33;;;7.80;99.90;;;;;;5015717;28;20052;-65
2023/04/21 01:45:38;;;;;;;37.95;25.77;;;8.00;99.90;;;;;;5015696;28;20402;-69
2023/04/21 01:48:04;;;;;;;44.00;25.38;;;8.00;99.90;;;;;;5014640;28;20064;-69
2023/04/21 01:50:29;;;;;;;40.30;24.02;;;7.80;99.90;;;;;;5015244;28;20390;-66
2023/04/21 01:52:55;;;;;;;43.72;25.67;;;8.20;99.90;;;;;;5015515;28;20042;-66
2023/04/21 01:55:21;;;;;;;41.95;25.67;;;8.10;99.90;;;;;;5014477;28;20074;-66
2023/04/21 01:57:47;;;;;;;47.60;27.30;;;8.10;99.90;;;;;;5015238;28;20057;-66
2023/04/21 02:00:13;;;;;;;44.15;25.73;;;7.90;99.90;;;;;;5014352;28;20054;-68
2023/04/21 02:02:39;;;;;;;49.65;27.15;;;7.90;99.90;;;;;;5015402;28;20405;-68
2023/04/21 02:05:05;;;;;;;50.95;27.95;;;8.10;99.90;;;;;;5015103;28;20046;-70
2023/04/21 02:07:30;;;;;;;42.83;27.98;;;7.60;99.90;;;;;;5015474;28;20050;-66
2023/04/21 02:09:56;;;;;;;43.10;28.58;;;7.70;99.90;;;;;;5015396;28;20038;-65
2023/04/21 02:12:22;;;;;;;48.65;28.20;;;7.90;99.90;;;;;;5015371;28;20050;-66
2023/04/21 02:14:48;;;;;;;45.00;26.63;;;7.90;99.90;;;;;;5015144;28;20126;-66
2023/04/21 02:17:16;;;;;;;;;;;7.60;99.90;;;;;;5015296;28;20816;-65
2023/04/21 02:19:42;;;;;;;44.30;26.20;;;7.60;99.90;;;;;;5014771;28;19921;-66
2023/04/21 02:22:11;;;;;;;43.30;26.23;;;7.90;99.90;;;;;;5014925;28;20057;-67
2023/04/21 02:24:37;;;;;;;44.92;27.77;;;8.70;99.90;;;;;;5014881;28;20046;-68
2023/04/21 02:27:03;;;;;;;45.75;26.00;;;7.70;99.90;;;;;;5014948;28;20049;-66
2023/04/21 02:29:29;;;;;;;44.55;26.75;;;7.60;99.90;;;;;;5014806;28;20048;-65
2023/04/21 02:31:54;;;;;;;42.95;26.90;;;7.40;99.90;;;;;;5014962;28;20844;-67
2023/04/21 02:34:20;;;;;;;46.72;27.25;;;7.60;99.90;;;;;;5014459;28;20058;-69
2023/04/21 02:36:46;;;;;;;51.95;26.40;;;7.70;99.90;;;;;;5014736;28;20140;-66
2023/04/21 02:39:12;;;;;;;41.53;25.25;;;7.60;99.90;;;;;;5014743;28;20405;-67
2023/04/21 02:41:38;;;;;;;51.58;26.83;;;7.90;99.90;;;;;;5014883;28;20061;-66
2023/04/21 02:44:04;;;;;;;;;;;7.60;99.90;;;;;;5015050;28;20143;-65
2023/04/21 02:46:30;;;;;;;49.35;25.73;;;7.40;99.90;;;;;;5013461;28;20369;-66
2023/04/21 02:48:56;;;;;;;39.28;24.58;;;7.90;99.90;;;;;;5014245;28;20049;-65
2023/04/21 02:51:21;;;;;;;44.58;25.73;;;8.30;99.90;;;;;;5014446;28;20468;-67
2023/04/21 02:53:47;;;;;;;48.42;25.63;;;8.00;99.90;;;;;;5014371;28;20145;-65
2023/04/21 02:56:13;;;;;;;51.40;26.45;;;8.70;99.90;;;;;;5014370;28;20052;-65
2023/04/21 02:58:39;;;;;;;43.92;24.10;;;7.80;99.90;;;;;;5013021;28;20056;-65
2023/04/21 03:01:05;;;;;;;43.53;25.17;;;8.70;99.90;;;;;;5014255;28;20053;-69
2023/04/21 03:03:31;;;;;;;44.50;24.83;;;7.50;99.90;;;;;;5013901;28;20060;-66
2023/04/21 03:06:01;;;;;;;46.45;25.33;;;7.30;99.90;;;;;;5014162;28;20045;-65
2023/04/21 03:08:27;;;;;;;38.30;24.50;;;7.40;99.90;;;;;;5014073;28;20088;-67
2023/04/21 03:10:53;;;;;;;36.38;23.38;;;7.70;99.90;;;;;;5012751;28;20096;-65
2023/04/21 03:13:19;;;;;;;45.70;24.52;;;8.00;99.90;;;;;;5014035;28;20077;-64
2023/04/21 03:15:45;;;;;;;44.72;24.23;;;7.40;99.90;;;;;;5013783;28;20140;-66
2023/04/21 03:18:11;;;;;;;42.60;23.15;;;7.20;99.90;;;;;;5013919;28;20133;-67
2023/04/21 03:20:36;;;;;;;35.67;22.55;;;8.20;99.90;;;;;;5013853;28;20093;-65
2023/04/21 03:23:02;;;;;;;40.38;23.60;;;7.50;99.90;;;;;;5013828;28;20049;-64
2023/04/21 03:25:28;;;;;;;37.45;22.58;;;6.90;99.90;;;;;;5013406;28;20100;-68
2023/04/21 03:27:55;;;;;;;37.78;22.48;;;7.40;99.90;;;;;;5013730;28;20053;-66
2023/04/21 03:30:21;;;;;;;36.33;22.05;;;7.20;99.90;;;;;;5013230;28;20116;-66
2023/04/21 03:32:47;;;;;;;38.67;22.40;;;7.50;99.90;;;;;;5012354;28;20076;-65
2023/04/21 03:35:12;;;;;;;35.72;21.30;;;7.00;99.90;;;;;;5013226;28;20132;-66
2023/04/21 03:37:38;;;;;;;38.78;21.10;;;7.10;99.90;;;;;;5013886;28;20041;-66
2023/04/21 03:40:07;;;;;;;37.13;21.05;;;8.00;99.90;;;;;;5012287;28;20483;-67
2023/04/21 03:42:34;;;;;;;34.47;20.88;;;7.40;99.90;;;;;;5013393;28;20490;-65
2023/04/21 03:45:05;;;;;;;36.88;21.05;;;7.30;99.90;;;;;;5013147;28;20046;-67
2023/04/21 03:47:30;;;;;;;37.67;20.52;;;7.30;99.90;;;;;;5013354;28;20050;-66
2023/04/21 03:49:56;;;;;;;37.05;21.45;;;7.70;99.90;;;;;;5013241;28;20053;-65
2023/04/21 03:52:22;;;;;;;37.55;21.27;;;7.40;99.90;;;;;;5013306;28;20042;-65
2023/04/21 03:54:48;;;;;;;;;;;7.10;99.90;;;;;;5013632;28;20537;-65
2023/04/21 03:57:14;;;;;;;41.45;19.48;;;7.50;99.90;;;;;;5013042;28;19925;-66
2023/04/21 03:59:40;;;;;;;33.30;19.75;;;7.80;99.90;;;;;;5013064;28;20081;-70
2023/04/21 04:02:06;;;;;;;35.65;19.48;;;7.10;99.90;;;;;;5013311;28;20512;-66
2023/04/21 04:04:32;;;;;;;34.47;19.45;;;7.30;99.90;;;;;;5013699;28;20153;-65
2023/04/21 04:06:58;;;;;;;31.27;19.27;;;7.30;99.90;;;;;;5013122;28;20053;-67
2023/04/21 04:09:23;;;;;;;30.45;19.20;;;7.50;99.90;;;;;;5013020;28;20045;-66
2023/04/21 04:11:49;;;;;;;36.88;19.90;;;8.40;99.90;;;;;;5013008;28;20050;-65
2023/04/21 04:14:15;;;;;;;35.78;18.88;;;7.70;99.90;;;;;;4995042;28;20120;-65
2023/04/21 04:16:41;;;;;;;38.65;19.45;;;7.60;99.90;;;;;;5012894;28;20089;-67
2023/04/21 04:19:07;;;;;;;28.98;19.85;;;8.10;99.90;;;;;;5012884;28;20049;-67
2023/04/21 04:21:33;;;;;;;31.40;18.25;;;8.20;99.90;;;;;;5012891;28;20530;-67
2023/04/21 04:24:01;;;;;;;30.00;18.25;;;7.80;99.90;;;;;;5012825;28;20041;-66
2023/04/21 04:26:27;;;;;;;36.13;19.23;;;7.70;99.90;;;;;;5012474;28;20049;-67
2023/04/21 04:28:55;;;;;;;36.45;20.08;;;7.30;99.90;;;;;;5012354;28;20046;-67
2023/04/21 04:31:24;;;;;;;31.88;18.70;;;7.40;99.90;;;;;;5012517;28;20092;-67
2023/04/21 04:33:51;;;;;;;31.95;19.27;;;7.40;99.90;;;;;;5012592;28;20071;-66
2023/04/21 04:36:16;;;;;;;34.63;19.13;;;7.70;99.90;;;;;;5011289;28;20429;-66
2023/04/21 04:38:42;;;;;;;37.35;20.17;;;7.50;99.90;;;;;;5012606;28;20050;-68
2023/04/21 04:41:08;;;;;;;30.55;18.67;;;7.90;99.90;;;;;;5012572;28;20188;-65
2023/04/21 04:43:35;;;;;;;32.55;18.55;;;7.70;99.90;;;;;;5012235;28;20406;-65
2023/04/21 04:46:02;;;;;;;32.75;17.70;;;7.60;99.90;;;;;;5012438;28;20053;-67
2023/04/21 04:48:28;;;;;;;34.05;17.60;;;7.60;99.90;;;;;;5011407;28;20061;-68
2023/04/21 04:50:53;;;;;;;31.73;17.77;;;7.90;99.90;;;;;;5012379;28;20092;-68
2023/04/21 04:53:19;;;;;;;35.45;18.85;;;8.30;99.90;;;;;;5011048;28;20045;-66
2023/04/21 04:55:46;;;;;;;27.65;18.52;;;8.70;99.90;;;;;;5012304;28;20045;-66
2023/04/21 04:58:12;;;;;;;30.35;18.73;;;7.80;99.90;;;;;;5012050;28;20152;-66
2023/04/21 05:00:37;;;;;;;29.05;17.00;;;8.50;99.90;;;;;;5011976;28;20133;-68
2023/04/21 05:03:03;;;;;;;34.38;17.25;;;7.50;99.90;;;;;;5012322;28;20046;-66
2023/04/21 05:05:29;;;;;;;29.60;17.77;;;7.80;99.90;;;;;;5012221;28;20112;-67
2023/04/21 05:07:55;;;;;;;28.85;18.08;;;7.70;99.90;;;;;;5012277;28;20133;-65
2023/04/21 05:10:21;;;;;;;31.98;18.05;;;7.70;99.90;;;;;;5015651;28;20153;-67
2023/04/21 05:12:46;;;;;;;30.48;17.90;;;7.60;99.90;;;;;;5015043;28;20478;-66
2023/04/21 05:15:12;;;;;;;27.55;17.40;;;7.90;99.90;;;;;;5016252;28;20054;-65
2023/04/21 05:17:38;;;;;;;26.63;16.45;;;7.70;99.90;;;;;;5015873;28;20409;-65
2023/04/21 05:20:05;;;;;;;27.30;16.65;;;8.10;99.90;;;;;;5016510;28;20057;-65
2023/04/21 05:22:31;;;;;;;27.42;15.70;;;7.60;99.90;;;;;;5016095;28;20049;-65
2023/04/21 05:24:56;;;;;;;27.33;16.73;;;8.00;99.90;;;;;;5016122;28;20054;-69
2023/04/21 05:27:22;;;;;;;30.15;16.80;;;8.30;99.90;;;;;;5015807;28;20053;-66
2023/04/21 05:29:48;;;;;;;29.38;16.10;;;7.70;99.90;;;;;;5015609;28;20072;-65
2023/04/21 05:32:14;;;;;;;25.58;15.73;;;8.90;99.90;;;;;;5016078;28;20477;-67
2023/04/21 05:34:40;;;;;;;29.27;15.95;;;8.00;99.90;;;;;;5015933;28;20089;-65
2023/04/21 05:37:06;;;;;;;28.33;16.65;;;8.30;99.90;;;;;;5015813;28;20085;-65
2023/04/21 05:39:31;;;;;;;;;;;8.20;99.90;;;;;;5016168;28;20482;-69
2023/04/21 05:41:57;;;;;;;25.73;16.00;;;8.40;99.90;;;;;;5014555;28;19986;-66
2023/04/21 05:44:24;;;;;;;30.15;15.88;;;8.20;99.90;;;;;;5015789;28;20143;-66
2023/04/21 05:46:50;;;;;;;27.83;15.63;;;8.40;99.90;;;;;;5015616;28;20046;-67
2023/04/21 05:49:15;;;;;;;26.77;15.02;;;8.40;99.90;;;;;;5015611;28;20053;-66
2023/04/21 05:51:41;;;;;;;22.45;15.98;;;8.60;99.90;;;;;;5008563;28;20054;-66
2023/04/21 05:54:07;;;;;;;22.90;14.38;;;8.50;99.90;;;;;;5015261;28;20050;-68
2023/04/21 05:56:32;;;;;;;27.55;15.45;;;8.80;99.90;;;;;;5015010;28;20046;-66
2023/04/21 05:58:58;;;;;;;23.85;15.38;;;8.70;99.90;;;;;;5015120;28;20046;-66
2023/04/21 06:01:24;;;;;;;22.52;14.52;;;8.90;99.90;;;;;;5015237;28;20048;-66
2023/04/21 06:03:49;;;;;;;27.73;14.27;;;9.00;99.90;;;;;;5015254;28;20084;-66
2023/04/21 06:06:16;;;;;;;29.48;14.27;;;9.00;99.90;;;;;;5014501;28;20077;-66
2023/04/21 06:08:42;;;;;;;27.92;14.68;;;9.20;99.90;;;;;;5015153;28;20054;-67
2023/04/21 06:11:07;;;;;;;22.30;15.05;;;9.10;99.90;;;;;;5014596;28;20049;-66
2023/04/21 06:13:33;;;;;;;28.02;14.75;;;9.00;99.90;;;;;;5014747;28;20486;-67
2023/04/21 06:15:59;;;;;;;23.30;13.80;;;9.10;99.90;;;;;;5014523;28;20041;-66
2023/04/21 06:18:28;;;;;;;22.73;13.85;;;9.40;99.90;;;;;;5015223;28;20053;-66
2023/04/21 06:20:54;;;;;;;24.17;13.85;;;9.40;99.90;;;;;;5014030;28;20133;-66
2023/04/21 06:23:20;;;;;;;23.83;13.32;;;9.30;99.90;;;;;;5014118;28;20046;-66
2023/04/21 06:25:46;;;;;;;;;;;9.60;99.90;;;;;;5034649;28;20042;-66
2023/04/21 06:28:12;;;;;;;23.55;13.40;;;9.60;99.90;;;;;;5034635;28;19925;-66
2023/04/21 06:30:38;;;;;;;24.70;13.00;;;9.60;99.90;;;;;;5034122;28;20555;-70
2023/04/21 06:33:05;;;;;;;27.27;13.02;;;10.00;99.90;;;;;;5034125;28;20045;-65
2023/04/21 06:35:31;;;;;;;27.30;13.70;;;9.90;99.90;;;;;;5016093;28;20461;-65
2023/04/21 06:37:57;;;;;;;23.98;13.38;;;10.00;99.90;;;;;;5013262;28;20046;-65
2023/04/21 06:40:22;;;;;;;21.58;13.52;;;10.00;99.90;;;;;;5014411;28;20507;-66
2023/04/21 06:42:48;;;;;;;22.55;12.63;;;10.10;99.90;;;;;;5014097;28;20077;-65
2023/04/21 06:45:14;;;;;;;23.83;13.93;;;9.80;99.90;;;;;;5014892;28;20391;-65
2023/04/21 06:47:39;;;;;;;28.42;13.02;;;10.10;99.90;;;;;;5014540;28;20141;-66
2023/04/21 06:50:06;;;;;;;20.75;12.95;;;10.30;99.90;;;;;;5013528;28;20042;-68
2023/04/21 06:52:32;;;;;;;23.63;13.18;;;10.20;99.90;;;;;;5014388;28;20111;-66
2023/04/21 06:54:57;;;;;;;26.02;13.68;;;10.30;99.90;;;;;;5014027;28;20140;-68
2023/04/21 06:57:23;;;;;;;20.50;12.75;;;10.20;99.90;;;;;;5013821;28;20042;-66
2023/04/21 06:59:49;;;;;;;22.90;13.75;;;10.60;99.90;;;;;;5011983;28;20046;-65
2023/04/21 07:02:14;;;;;;;22.23;12.90;;;10.50;99.90;;;;;;5012770;28;20045;-69
2023/04/21 07:04:40;;;;;;;25.52;12.43;;;10.30;99.90;;;;;;5013792;28;20410;-66
2023/04/21 07:07:06;;;;;;;29.42;13.02;;;10.60;99.90;;;;;;5013686;28;20048;-67
2023/04/21 07:09:32;;;;;;;20.38;12.13;;;10.80;99.90;;;;;;5005559;28;20038;-66
2023/04/21 07:11:58;;;;;;;;;;;10.90;99.90;;;;;;5012199;28;20128;-66
2023/04/21 07:14:24;;;;;;;21.98;13.18;;;10.80;99.90;;;;;;5011598;28;20421;-68
2023/04/21 07:16:50;;;;;;;24.55;12.32;;;10.70;99.90;;;;;;5012084;28;20513;-68
2023/04/21 07:19:16;;;;;;;25.10;13.00;;;11.00;99.90;;;;;;5013843;28;20046;-66
2023/04/21 07:21:41;;;;;;;29.85;13.02;;;10.80;99.90;;;;;;5013708;28;20453;-71
2023/04/21 07:24:08;;;;;;;18.42;11.88;;;11.10;99.90;;;;;;5012246;28;20050;-67
2023/04/21 07:26:33;;;;;;;23.83;12.18;;;11.00;99.90;;;;;;5013889;28;20049;-66
2023/04/21 07:28:59;;;;;;;26.13;12.55;;;11.00;99.90;;;;;;5013763;28;20586;-66
2023/04/21 07:31:25;;;;;;;21.48;12.98;;;11.00;99.90;;;;;;5012807;28;20061;-68
2023/04/21 07:33:50;;;;;;;19.35;12.38;;;11.50;99.90;;;;;;5013682;28;20085;-66
2023/04/21 07:36:16;;;;;;;20.40;12.23;;;11.20;99.90;;;;;;5013695;28;20132;-68
2023/04/21 07:38:43;;;;;;;21.75;12.55;;;11.50;99.90;;;;;;5013368;28;20500;-68
2023/04/21 07:41:12;;;;;;;20.48;12.00;;;11.40;99.90;;;;;;5013556;28;20046;-68
2023/04/21 07:43:39;;;;;;;22.17;12.45;;;11.70;99.90;;;;;;5013542;28;20058;-69
2023/04/21 07:46:05;;;;;;;22.65;12.05;;;11.70;99.90;;;;;;5013477;28;20049;-67
2023/04/21 07:48:32;;;;;;;19.25;12.48;;;11.60;99.90;;;;;;5013618;28;20045;-67
2023/04/21 07:50:59;;;;;;;;;;;11.30;99.90;;;;;;5013981;28;20422;-67
2023/04/21 07:53:25;;;;;;;18.52;12.05;;;11.60;99.90;;;;;;5012165;28;20320;-65
2023/04/21 07:55:50;;;;;;;;;;;11.60;99.90;;;;;;5013822;28;20046;-66
2023/04/21 07:58:16;;;;;;;21.83;12.20;;;12.20;99.90;;;;;;5013325;28;19921;-66
2023/04/21 08:00:42;;;;;;;19.58;11.90;;;12.10;99.90;;;;;;5013196;28;20049;-67
2023/04/21 08:03:08;;;;;;;22.60;11.65;;;12.30;99.90;;;;;;5013252;28;20660;-68
2023/04/21 08:05:34;;;;;;;24.38;11.73;;;12.40;99.90;;;;;;5013213;28;20128;-67
2023/04/21 08:08:00;;;;;;;19.60;11.90;;;12.30;99.90;;;;;;5012927;28;20056;-66
2023/04/21 08:10:25;;;;;;;24.65;11.75;;;12.20;99.90;;;;;;5013021;28;20482;-66
2023/04/21 08:12:51;;;;;;;21.25;12.43;;;12.70;99.90;;;;;;5012928;28;20046;-67
2023/04/21 08:15:17;;;;;;;17.73;11.93;;;12.40;99.90;;;;;;4995587;28;20050;-66
2023/04/21 08:17:42;;;;;;;20.98;11.98;;;12.90;99.90;;;;;;5012896;28;20042;-66
2023/04/21 08:20:09;;;;;;;18.23;12.07;;;12.90;99.90;;;;;;5012341;28;20141;-66
2023/04/21 08:22:37;;;;;;;24.83;12.13;;;13.20;99.90;;;;;;5012962;28;20463;-69
2023/04/21 08:25:04;;;;;;;21.00;11.38;;;13.30;99.90;;;;;;5012530;28;20474;-65
2023/04/21 08:27:30;;;;;;;19.48;11.52;;;13.40;99.90;;;;;;5012861;28;20149;-66
2023/04/21 08:29:55;;;;;;;22.23;11.63;;;13.30;99.90;;;;;;5012322;28;20129;-66
2023/04/21 08:32:25;;;;;;;20.73;10.52;;;13.60;99.90;;;;;;5012734;28;20060;-66
2023/04/21 08:34:52;;;;;;;19.13;11.20;;;13.90;99.90;;;;;;5012332;28;20441;-68
2023/04/21 08:37:19;;;;;;;20.63;10.93;;;13.60;99.90;;;;;;5012598;28;20050;-66
2023/04/21 08:39:46;;;;;;;21.38;10.90;;;13.50;99.90;;;;;;5012669;28;20037;-68
2023/04/21 08:42:16;;;;;;;20.20;10.95;;;13.70;99.90;;;;;;5012573;28;20049;-67
2023/04/21 08:44:43;;;;;;;22.58;10.85;;;13.70;99.90;;;;;;5011639;28;20048;-65
2023/04/21 08:47:13;;;;;;;20.17;10.77;;;14.00;99.90;;;;;;5012496;28;20045;-67
2023/04/21 08:49:41;;;;;;;17.98;11.20;;;14.30;99.90;;;;;;5012160;28;20081;-66
2023/04/21 08:52:07;;;;;;;18.60;11.02;;;13.90;99.90;;;;;;5012028;28;20486;-66
2023/04/21 08:54:35;;;;;;;21.27;10.90;;;14.10;99.90;;;;;;5012435;28;20042;-65
2023/04/21 08:57:02;;;;;;;21.88;11.25;;;14.30;99.90;;;;;;5012349;28;20053;-65
2023/04/21 08:59:28;;;;;;;19.80;10.23;;;14.60;99.90;;;;;;5012381;28;20129;-66
2023/04/21 09:02:07;;;;;;;;;;;14.70;99.90;;;;;;5012783;28;20053;-65
2023/04/21 09:04:32;;;;;;;20.70;10.77;;;14.40;99.90;;;;;;5011922;28;19925;-69
2023/04/21 09:06:58;;;;;;;17.80;9.88;;;14.30;99.90;;;;;;5012103;28;20072;-66
2023/04/21 09:09:23;;;;;;;19.73;10.98;;;14.40;99.90;;;;;;5012184;28;20037;-65
2023/04/21 09:11:57;;;;;;;26.85;10.13;;;14.50;99.90;;;;;;5011553;28;20053;-71
2023/04/21 09:14:31;;;;;;;18.98;9.93;;;14.90;99.90;;;;;;5008722;28;20068;-68
2023/04/21 09:17:01;;;;;;;16.73;9.90;;;14.80;99.90;;;;;;5012122;28;20054;-66
2023/04/21 09:19:33;;;;;;;25.00;10.45;;;14.60;99.90;;;;;;5011643;28;20042;-67
2023/04/21 09:22:02;;;;;;;22.13;10.05;;;15.10;99.90;;;;;;5011980;28;20054;-69
2023/04/21 09:24:29;;;;;;;20.42;10.02;;;14.80;99.90;;;;;;5011817;28;20049;-68
2023/04/21 09:26:55;;;;;;;21.48;10.43;;;15.00;99.90;;;;;;5011638;28;20050;-66
2023/04/21 09:29:24;;;;;;;16.70;9.80;;;15.30;99.90;;;;;;5011575;28;20045;-67
2023/04/21 09:31:51;;;;;;;16.90;10.32;;;15.10;99.90;;;;;;5010425;28;20457;-67
2023/04/21 09:34:20;;;;;;;17.20;8.88;;;15.20;99.90;;;;;;5011469;28;20041;-65
2023/04/21 09:36:47;;;;;;;18.13;8.73;;;15.30;99.90;;;;;;5011788;28;20128;-67
2023/04/21 09:39:13;;;;;;;22.90;9.48;;;15.60;99.90;;;;;;5011617;28;20050;-66
2023/04/21 09:41:39;;;;;;;16.75;9.73;;;15.80;99.90;;;;;;5011369;28;20068;-66
2023/04/21 09:44:04;;;;;;;17.48;9.48;;;15.70;99.90;;;;;;5011567;28;20437;-71
2023/04/21 09:46:31;;;;;;;;;;;15.50;99.90;;;;;;5012251;28;20053;-67
2023/04/21 09:49:00;;;;;;;20.10;9.10;;;16.00;99.90;;;;;;5010818;28;19925;-66
2023/04/21 09:51:26;;;;;;;16.60;9.45;;;15.60;99.90;;;;;;5011909;28;20049;-65
2023/04/21 09:53:58;;;;;;;19.50;9.77;;;15.90;99.90;;;;;;5001986;28;21287;-64
2023/04/21 09:56:25;;;;;;;15.27;9.75;;;15.90;99.90;;;;;;5012501;28;20517;-64
2023/04/21 09:58:53;;;;;;;16.88;9.07;;;16.10;99.90;;;;;;5013493;28;20922;-64
2023/04/21 10:01:19;;;;;;;17.77;9.25;;;16.00;99.90;;;;;;5014695;28;20116;-66
2023/04/21 10:03:47;;;;;;;;;;;16.10;99.90;;;;;;5015039;28;20560;-64
2023/04/21 10:06:13;;;;;;;16.27;9.35;;;16.30;99.90;;;;;;5015176;28;20255;-64
2023/04/21 10:08:39;;;;;;;17.67;9.05;;;16.00;99.90;;;;;;5014260;28;20132;-63
2023/04/21 10:11:06;;;;;;;18.27;8.73;;;16.20;99.90;;;;;;5014655;28;20116;-73
2023/04/21 10:13:32;;;;;;;19.58;9.25;;;15.80;99.90;;;;;;5011969;28;20050;-68
2023/04/21 10:16:02;;;;;;;;;;;16.60;99.90;;;;;;5013757;28;20072;-66
2023/04/21 10:18:28;;;;;;;15.55;8.68;;;16.80;99.90;;;;;;5012907;28;19925;-66
2023/04/21 10:20:55;;;;;;;18.08;8.55;;;16.60;99.90;;;;;;5014659;28;20602;-65
2023/04/21 10:23:44;;;;;;;18.65;9.00;;;16.80;99.90;;;;;;5014933;28;20077;-66
2023/04/21 10:26:10;;;;;;;16.20;9.75;;;16.70;99.90;;;;;;5015029;28;20054;-66
2023/04/21 10:28:43;;;;;;;;;;;17.00;99.90;;;;;;5015409;28;20111;-66
2023/04/21 10:31:29;;;;;;;22.58;9.18;;;17.20;99.90;;;;;;5014146;28;19921;-67
2023/04/21 10:34:12;;;;;;;17.38;8.38;;;17.10;99.90;;;;;;5014978;28;20054;-65
2023/04/21 10:36:45;;;;;;;14.07;8.30;;;17.40;99.90;;;;;;5014831;28;20453;-65
2023/04/21 10:39:24;;;;;;;20.02;9.00;;;17.40;99.90;;;;;;5014765;28;20065;-67
2023/04/21 10:41:50;;;;;;;18.52;8.55;;;17.10;99.90;;;;;;5014771;28;20089;-65
2023/04/21 10:44:16;;;;;;;13.75;8.68;;;17.30;99.90;;;;;;5014704;28;20108;-69
2023/04/21 10:46:46;;;;;;;19.80;8.27;;;17.50;99.90;;;;;;5014391;28;20049;-68
2023/04/21 10:49:23;;;;;;;16.05;8.68;;;17.50;99.90;;;;;;5014435;28;20129;-65
2023/04/21 10:51:58;;;;;;;19.52;9.35;;;17.40;99.90;;;;;;5014549;28;20042;-67
2023/04/21 10:54:25;;;;;;;19.50;8.50;;;17.40;99.90;;;;;;5014494;28;20127;-64
2023/04/21 10:56:53;;;;;;;13.80;7.75;;;17.30;99.90;;;;;;5014420;28;20049;-65
2023/04/21 10:59:19;;;;;;;14.27;7.97;;;18.10;99.90;;;;;;5014355;28;20449;-66
2023/04/21 11:01:45;;;;;;;17.10;8.48;;;17.90;99.90;;;;;;5012771;28;20721;-65
2023/04/21 11:04:20;;;;;;;16.05;7.80;;;18.50;99.90;;;;;;5014294;28;20048;-66
2023/04/21 11:07:11;;;;;;;16.27;8.45;;;18.40;99.90;;;;;;5013558;28;20056;-66
2023/04/21 11:09:38;;;;;;;18.60;8.43;;;18.30;99.90;;;;;;5014015;28;20046;-67
2023/04/21 11:12:11;;;;;;;15.57;8.13;;;18.20;99.90;;;;;;5014128;28;20050;-66
2023/04/21 11:14:39;;;;;;;18.77;8.52;;;18.00;99.90;;;;;;5013875;28;20493;-66
2023/04/21 11:17:11;;;;;;;18.20;7.80;;;18.50;99.90;;;;;;5012962;28;20505;-69
2023/04/21 11:19:37;;;;;;;15.82;7.97;;;18.10;99.90;;;;;;5014100;28;20462;-65
2023/04/21 11:22:03;;;;;;;14.00;8.18;;;18.50;99.90;;;;;;5013637;28;20081;-63
2023/04/21 11:24:30;;;;;;;19.80;7.85;;;18.40;99.90;;;;;;5013930;28;20371;-64
2023/04/21 11:26:57;;;;;;;18.20;7.95;;;18.80;99.90;;;;;;5012586;28;20052;-65
2023/04/21 11:29:23;;;;;;;15.02;7.43;;;18.50;99.90;;;;;;5013454;28;20046;-65
2023/04/21 11:31:50;;;;;;;18.98;7.53;;;18.40;99.90;;;;;;5013877;28;20062;-67
2023/04/21 11:34:20;;;;;;;15.68;7.50;;;18.60;99.90;;;;;;5013822;28;20157;-68
2023/04/21 11:36:47;;;;;;;17.10;7.15;;;18.70;99.90;;;;;;5013373;28;20061;-67
2023/04/21 11:39:15;;;;;;;15.30;8.20;;;18.60;99.90;;;;;;5013687;28;20057;-65
2023/04/21 11:41:49;;;;;;;15.35;7.55;;;18.40;99.90;;;;;;5013708;28;20057;-67
2023/04/21 11:44:40;;;;;;;15.70;7.20;;;18.90;99.90;;;;;;5013592;28;20478;-67
2023/04/21 11:47:15;;;;;;;14.27;7.07;;;19.10;99.90;;;;;;5013718;28;20056;-67
2023/04/21 11:49:55;;;;;;;15.52;7.43;;;18.70;99.90;;;;;;5013438;28;20050;-65
2023/04/21 11:52:21;;;;;;;22.15;8.25;;;19.20;99.90;;;;;;5012431;28;20058;-66
2023/04/21 11:54:47;;;;;;;17.42;7.22;;;19.30;99.90;;;;;;5013299;28;20451;-67
2023/04/21 11:57:16;;;;;;;18.55;7.18;;;19.20;99.90;;;;;;5013013;28;20136;-67
2023/04/21 11:59:45;;;;;;;47.15;7.90;;;19.20;99.90;;;;;;5013108;28;20045;-67
2023/04/21 12:02:19;;;;;;;17.27;7.20;;;19.20;99.90;;;;;;5013217;28;20057;-68
2023/04/21 12:05:03;;;;;;;14.35;7.13;;;19.40;99.90;;;;;;5013306;28;20057;-65
2023/04/21 12:07:31;;;;;;;11.48;6.70;;;19.50;99.90;;;;;;5013176;28;20132;-67
2023/04/21 12:09:57;;;;;;;12.60;7.03;;;19.40;99.90;;;;;;5012971;28;20049;-65
2023/04/21 12:12:23;;;;;;;17.80;6.63;;;19.30;99.90;;;;;;5013086;28;20385;-67
2023/04/21 12:14:50;;;;;;;15.95;6.97;;;19.70;99.90;;;;;;5011856;28;20046;-65
2023/04/21 12:17:16;;;;;;;12.30;7.07;;;19.90;99.90;;;;;;5012931;28;20058;-64
2023/04/21 12:19:42;;;;;;;14.07;6.15;;;20.10;99.90;;;;;;5012905;28;20077;-65
2023/04/21 12:22:14;;;;;;;12.05;6.63;;;19.70;99.90;;;;;;5012943;28;20499;-67
2023/04/21 12:24:40;;;;;;;10.82;5.95;;;19.90;99.90;;;;;;5011583;28;20084;-65
2023/04/21 12:27:07;;;;;;;13.82;6.85;;;19.70;99.90;;;;;;5012536;28;20049;-65
2023/04/21 12:29:37;;;;;;;11.93;6.25;;;19.80;99.90;;;;;;5012717;28;20038;-66
2023/04/21 12:32:04;;;;;;;14.98;5.80;;;20.10;99.90;;;;;;5012376;28;20414;-66
2023/04/21 12:34:29;;;;;;;16.50;5.80;;;20.20;99.90;;;;;;5011722;28;20057;-62
2023/04/21 12:36:55;;;;;;;16.08;6.30;;;20.70;99.90;;;;;;5012591;28;20045;-66